createdAt,value
2018-11-29T00:00:17.109Z,43.90
2018-11-29T00:02:45.413Z,41.53
2018-11-29T00:05:13.609Z,39.98
2018-11-29T00:07:41.999Z,43.15
2018-11-29T00:10:10.204Z,50.03
2018-11-29T00:12:38.433Z,39.88
2018-11-29T00:15:08.972Z,41.35
2018-11-29T00:17:37.965Z,36.53
2018-11-29T00:20:22.729Z,39.40
2018-11-29T00:22:51.374Z,39.58
2018-11-29T00:25:19.876Z,46.00
2018-11-29T00:27:48.314Z,39.97
2018-11-29T00:30:20.348Z,45.12
2018-11-29T00:32:48.866Z,40.80
2018-11-29T00:35:17.384Z,41.23
2018-11-29T00:37:45.676Z,39.80
2018-11-29T00:40:15.475Z,41.05
2018-11-29T00:42:43.755Z,45.98
2018-11-29T00:45:15.964Z,42.95
2018-11-29T00:47:44.828Z,44.33
2018-11-29T00:50:13.940Z,47.45
2018-11-29T00:52:43.937Z,51.73
2018-11-29T00:55:20.806Z,48.95
2018-11-29T00:57:49.019Z,56.98
2018-11-29T01:00:20.354Z,46.00
2018-11-29T01:02:48.733Z,40.95
2018-11-29T01:05:17.025Z,39.75
2018-11-29T01:07:45.253Z,43.30
2018-11-29T01:10:14.247Z,42.60
2018-11-29T01:12:42.502Z,46.70
2018-11-29T01:15:11.740Z,52.08
2018-11-29T01:17:39.940Z,50.43
2018-11-29T01:20:10.360Z,43.48
2018-11-29T01:22:38.591Z,44.90
2018-11-29T01:25:08.201Z,48.10
2018-11-29T01:27:36.414Z,48.02
2018-11-29T01:30:06.494Z,45.07
2018-11-29T01:32:34.718Z,51.83
2018-11-29T01:35:02.901Z,43.78
2018-11-29T01:37:31.084Z,44.08
2018-11-29T01:39:59.297Z,41.53
2018-11-29T01:42:27.496Z,43.52
2018-11-29T01:44:55.687Z,38.60
2018-11-29T01:47:23.894Z,39.08
2018-11-29T01:49:52.076Z,40.88
2018-11-29T01:52:20.283Z,44.30
2018-11-29T01:54:48.484Z,45.60
2018-11-29T01:57:16.681Z,54.00
2018-11-29T01:59:44.880Z,44.33
2018-11-29T02:02:13.107Z,50.73
2018-11-29T02:04:41.292Z,45.85
2018-11-29T02:07:09.497Z,46.33
2018-11-29T02:09:37.747Z,49.08
2018-11-29T02:12:05.968Z,43.10
2018-11-29T02:14:34.184Z,46.65
2018-11-29T02:17:02.400Z,48.48
2018-11-29T02:19:30.605Z,47.78
2018-11-29T02:21:58.800Z,51.73
2018-11-29T02:24:27.001Z,43.70
2018-11-29T02:26:55.213Z,48.45
2018-11-29T02:29:23.410Z,41.48
2018-11-29T02:31:51.599Z,43.87
2018-11-29T02:34:19.813Z,41.13
2018-11-29T02:36:48.000Z,45.78
2018-11-29T02:39:16.188Z,38.90
2018-11-29T02:41:44.398Z,38.28
2018-11-29T02:44:12.585Z,38.33
2018-11-29T02:46:40.793Z,41.88
2018-11-29T02:49:09.033Z,47.15
2018-11-29T02:51:37.212Z,48.48
2018-11-29T02:54:05.468Z,43.90
2018-11-29T02:56:33.684Z,46.73
2018-11-29T02:59:01.868Z,37.65
2018-11-29T03:01:30.056Z,35.65
2018-11-29T03:03:58.252Z,34.08
2018-11-29T03:06:26.430Z,32.48
2018-11-29T03:08:54.610Z,31.07
2018-11-29T03:11:22.790Z,31.07
2018-11-29T03:13:50.968Z,39.35
2018-11-29T03:16:19.139Z,36.70
2018-11-29T03:18:47.313Z,33.92
2018-11-29T03:21:15.484Z,40.15
2018-11-29T03:23:43.651Z,31.17
2018-11-29T03:26:11.824Z,36.10
2018-11-29T03:28:40.004Z,45.92
2018-11-29T03:31:08.149Z,38.75
2018-11-29T03:33:36.322Z,39.65
2018-11-29T03:36:04.649Z,41.85
2018-11-29T03:38:32.809Z,43.23
2018-11-29T03:41:01.393Z,37.83
2018-11-29T03:43:29.576Z,47.05
2018-11-29T03:45:57.756Z,52.48
2018-11-29T03:48:25.914Z,41.85
2018-11-29T03:50:54.083Z,40.70
2018-11-29T03:53:22.277Z,39.75
2018-11-29T03:55:50.457Z,45.17
2018-11-29T03:58:18.621Z,44.05
2018-11-29T04:00:46.794Z,44.53
2018-11-29T04:03:14.969Z,54.60
2018-11-29T04:05:43.125Z,41.55
2018-11-29T04:08:11.307Z,39.42
2018-11-29T04:10:39.468Z,48.25
2018-11-29T04:13:07.632Z,44.88
2018-11-29T04:15:35.856Z,37.45
2018-11-29T04:18:04.020Z,36.40
2018-11-29T04:20:32.201Z,45.50
2018-11-29T04:23:00.368Z,43.60
2018-11-29T04:25:28.533Z,38.85
2018-11-29T04:27:56.708Z,45.17
2018-11-29T04:30:24.887Z,61.05
2018-11-29T04:32:53.374Z,37.40
2018-11-29T04:35:21.241Z,35.90
2018-11-29T04:37:49.414Z,45.12
2018-11-29T04:40:17.625Z,40.92
2018-11-29T04:42:45.848Z,39.00
2018-11-29T04:45:17.637Z,37.08
2018-11-29T04:47:46.076Z,47.62
2018-11-29T04:50:14.900Z,39.65
2018-11-29T04:52:43.075Z,48.20
2018-11-29T04:55:11.245Z,48.08
2018-11-29T04:57:39.418Z,36.63
2018-11-29T05:00:12.420Z,37.93
2018-11-29T05:02:40.625Z,41.85
2018-11-29T05:05:09.172Z,38.20
2018-11-29T05:07:37.456Z,38.70
2018-11-29T05:10:07.165Z,38.08
2018-11-29T05:12:35.350Z,39.92
2018-11-29T05:15:03.608Z,49.23
2018-11-29T05:17:31.781Z,44.60
2018-11-29T05:19:59.978Z,47.20
2018-11-29T05:22:28.161Z,41.90
2018-11-29T05:24:56.354Z,38.15
2018-11-29T05:27:24.532Z,41.10
2018-11-29T05:29:52.717Z,36.98
2018-11-29T05:32:20.872Z,34.65
2018-11-29T05:34:49.042Z,34.78
2018-11-29T05:37:17.220Z,43.20
2018-11-29T05:39:45.397Z,32.05
2018-11-29T05:42:13.564Z,35.55
2018-11-29T05:44:41.773Z,37.50
2018-11-29T05:47:09.954Z,44.70
2018-11-29T05:49:38.142Z,33.28
2018-11-29T05:52:06.313Z,42.03
2018-11-29T05:54:34.477Z,43.02
2018-11-29T05:57:02.648Z,38.78
2018-11-29T05:59:30.808Z,37.08
2018-11-29T06:01:59.001Z,40.75
2018-11-29T06:04:27.180Z,36.93
2018-11-29T06:06:55.384Z,39.18
2018-11-29T06:09:23.564Z,37.83
2018-11-29T06:11:51.744Z,40.73
2018-11-29T06:14:19.945Z,43.42
2018-11-29T06:16:48.169Z,51.90
2018-11-29T06:19:16.401Z,69.12
2018-11-29T06:21:44.600Z,57.13
2018-11-29T06:24:13.654Z,43.28
2018-11-29T06:26:40.997Z,47.95
2018-11-29T06:29:09.181Z,42.53
2018-11-29T06:31:37.378Z,36.33
2018-11-29T06:34:06.068Z,35.80
2018-11-29T06:36:34.265Z,34.80
2018-11-29T06:39:02.469Z,34.15
2018-11-29T06:41:30.651Z,30.85
2018-11-29T06:43:58.817Z,31.93
2018-11-29T06:46:27.009Z,33.05
2018-11-29T06:48:55.192Z,35.80
2018-11-29T06:51:23.369Z,30.43
2018-11-29T06:53:56.921Z,43.63
2018-11-29T06:56:25.129Z,29.80
2018-11-29T06:58:53.333Z,33.60
2018-11-29T07:01:21.521Z,39.30
2018-11-29T07:03:49.697Z,33.98
2018-11-29T07:06:17.924Z,33.65
2018-11-29T07:08:46.125Z,35.13
2018-11-29T07:11:14.350Z,32.15
2018-11-29T07:13:42.528Z,38.38
2018-11-29T07:16:10.714Z,24.52
2018-11-29T07:18:38.908Z,29.95
2018-11-29T07:21:18.430Z,28.30
2018-11-29T07:23:46.609Z,33.33
2018-11-29T07:26:14.802Z,27.77
2018-11-29T07:28:43.006Z,27.05
2018-11-29T07:31:11.190Z,24.37
2018-11-29T07:33:39.386Z,25.52
2018-11-29T07:36:07.561Z,25.23
2018-11-29T07:38:35.761Z,26.27
2018-11-29T07:41:03.942Z,25.68
2018-11-29T07:43:32.158Z,24.20
2018-11-29T08:10:36.761Z,18.82
2018-11-29T08:13:05.427Z,18.67
2018-11-29T08:15:33.658Z,19.62
2018-11-29T08:18:01.867Z,22.48
2018-11-29T08:20:30.077Z,21.48
2018-11-29T08:22:58.302Z,18.23
2018-11-29T08:25:26.553Z,21.48
2018-11-29T08:27:54.782Z,20.50
2018-11-29T08:30:22.984Z,18.90
2018-11-29T08:32:51.178Z,18.65
2018-11-29T08:35:19.358Z,18.52
2018-11-29T08:37:47.733Z,27.77
2018-11-29T08:40:20.753Z,25.43
2018-11-29T08:42:49.184Z,19.95
2018-11-29T08:45:17.372Z,20.32
2018-11-29T08:47:45.591Z,17.48
2018-11-29T08:50:14.488Z,20.43
2018-11-29T08:52:43.585Z,21.40
2018-11-29T08:55:19.345Z,17.10
2018-11-29T08:57:48.619Z,17.90
2018-11-29T09:00:19.671Z,14.23
2018-11-29T09:02:47.905Z,16.12
2018-11-29T09:05:16.164Z,13.98
2018-11-29T09:07:45.306Z,13.05
2018-11-29T09:10:16.772Z,13.55
2018-11-29T09:12:44.950Z,15.88
2018-11-29T09:15:14.759Z,16.50
2018-11-29T09:17:49.445Z,15.68
2018-11-29T09:20:19.496Z,13.03
2018-11-29T09:22:47.671Z,12.40
2018-11-29T09:25:17.741Z,10.30
2018-11-29T09:27:45.915Z,11.80
2018-11-29T09:30:17.935Z,11.65
2018-11-29T09:32:46.857Z,11.10
2018-11-29T09:35:15.106Z,11.75
2018-11-29T09:37:43.295Z,11.25
2018-11-29T09:40:16.054Z,10.90
2018-11-29T09:42:44.329Z,11.80
2018-11-29T09:45:13.582Z,11.60
2018-11-29T09:47:41.817Z,11.60
2018-11-29T09:50:11.227Z,10.47
2018-11-29T09:52:39.945Z,11.43
2018-11-29T09:55:09.397Z,13.83
2018-11-29T09:57:38.383Z,12.53
2018-11-29T10:00:27.794Z,11.12
2018-11-29T10:02:54.852Z,11.08
2018-11-29T10:05:23.064Z,10.32
2018-11-29T10:07:51.297Z,11.12
2018-11-29T10:10:19.483Z,11.83
2018-11-29T10:12:47.682Z,12.10
2018-11-29T10:15:15.929Z,14.10
2018-11-29T10:17:44.113Z,10.10
2018-11-29T10:20:12.754Z,9.55
2018-11-29T10:22:41.833Z,14.50
2018-11-29T10:25:13.197Z,12.58
2018-11-29T10:27:42.598Z,12.98
2018-11-29T10:30:30.665Z,13.40
2018-11-29T10:32:58.855Z,12.13
2018-11-29T10:35:27.144Z,12.37
2018-11-29T10:37:55.321Z,8.68
2018-11-29T10:40:23.529Z,10.15
2018-11-29T10:42:51.712Z,10.50
2018-11-29T10:45:20.483Z,10.93
2018-11-29T10:47:52.556Z,8.73
2018-11-29T10:50:18.407Z,12.15
2018-11-29T10:52:46.584Z,16.55
2018-11-29T10:55:15.824Z,12.82
2018-11-29T10:57:44.219Z,12.25
2018-11-29T11:00:24.975Z,16.95
2018-11-29T11:02:59.430Z,13.20
2018-11-29T11:05:27.644Z,16.80
2018-11-29T11:07:55.849Z,11.00
2018-11-29T11:10:24.039Z,11.12
2018-11-29T11:12:52.221Z,11.83
2018-11-29T11:15:20.431Z,11.97
2018-11-29T11:17:48.627Z,13.63
2018-11-29T11:20:16.827Z,18.07
2018-11-29T11:22:45.014Z,16.48
2018-11-29T11:25:13.335Z,13.48
2018-11-29T11:27:41.567Z,13.50
2018-11-29T11:30:17.553Z,12.07
2018-11-29T11:32:46.817Z,11.85
2018-11-29T11:35:15.004Z,10.20
2018-11-29T11:37:43.268Z,11.40
2018-11-29T11:40:12.541Z,11.00
2018-11-29T11:42:40.729Z,12.93
2018-11-29T11:45:13.017Z,8.07
2018-11-29T11:47:41.173Z,7.43
2018-11-29T11:50:15.286Z,11.90
2018-11-29T11:52:43.483Z,15.13
2018-11-29T11:55:18.706Z,8.83
2018-11-29T11:57:40.465Z,9.53
2018-11-29T12:00:18.046Z,8.20
2018-11-29T12:02:46.784Z,11.33
2018-11-29T12:29:57.892Z,10.57
2018-11-29T12:37:21.090Z,10.10
2018-11-29T12:39:49.302Z,13.57
2018-11-29T12:42:17.490Z,11.30
2018-11-29T12:44:45.682Z,7.57
2018-11-29T12:47:13.877Z,9.30
2018-11-29T12:49:42.062Z,9.43
2018-11-29T12:52:10.267Z,9.37
2018-11-29T12:54:38.838Z,10.10
2018-11-29T12:57:07.093Z,12.90
2018-11-29T12:59:35.262Z,16.57
2018-11-29T13:02:03.461Z,12.23
2018-11-29T13:04:32.285Z,10.53
2018-11-29T13:06:59.846Z,12.67
2018-11-29T13:09:28.025Z,11.57
2018-11-29T13:11:56.213Z,13.00
2018-11-29T13:14:24.412Z,12.33
2018-11-29T13:16:52.597Z,10.30
2018-11-29T13:19:20.784Z,11.50
2018-11-29T13:21:48.974Z,17.73
2018-11-29T13:24:17.150Z,14.20
2018-11-29T13:26:45.347Z,12.30
2018-11-29T13:29:13.559Z,13.00
2018-11-29T13:31:41.746Z,12.67
2018-11-29T13:34:10.002Z,12.83
2018-11-29T13:36:38.199Z,15.10
2018-11-29T13:39:09.291Z,25.77
2018-11-29T13:41:36.817Z,15.85
2018-11-29T13:44:05.134Z,12.93
2018-11-29T13:46:33.326Z,14.43
2018-11-29T13:49:01.514Z,10.17
2018-11-29T13:51:29.716Z,14.20
2018-11-29T13:53:57.919Z,16.03
2018-11-29T13:56:26.156Z,19.03
2018-11-29T13:58:54.375Z,14.40
2018-11-29T14:01:22.527Z,16.00
2018-11-29T14:03:50.734Z,14.13
2018-11-29T14:06:18.921Z,13.40
2018-11-29T14:08:47.122Z,14.60
2018-11-29T14:11:15.342Z,17.90
2018-11-29T14:13:43.635Z,17.20
2018-11-29T14:16:11.845Z,16.30
2018-11-29T14:18:40.069Z,12.60
2018-11-29T14:21:08.278Z,17.63
2018-11-29T14:23:36.469Z,18.15
2018-11-29T14:26:04.742Z,19.65
2018-11-29T14:28:32.941Z,13.90
2018-11-29T14:31:01.139Z,18.50
2018-11-29T14:33:29.338Z,27.27
2018-11-29T14:35:57.536Z,25.95
2018-11-29T14:38:25.731Z,24.27
2018-11-29T14:40:53.954Z,34.70
2018-11-29T14:43:22.136Z,24.20
2018-11-29T14:45:50.348Z,21.65
2018-11-29T14:48:18.575Z,21.77
2018-11-29T14:50:47.084Z,33.10
2018-11-29T14:53:15.282Z,24.95
2018-11-29T14:55:43.695Z,29.02
2018-11-29T14:58:13.094Z,42.00
2018-11-29T15:00:41.374Z,38.78
2018-11-29T15:03:12.181Z,20.82
2018-11-29T15:05:40.387Z,27.25
2018-11-29T15:08:09.482Z,24.18
2018-11-29T15:10:38.161Z,23.00
2018-11-29T15:13:07.854Z,24.70
2018-11-29T15:15:36.297Z,28.90
2018-11-29T15:18:11.153Z,28.92
2018-11-29T15:20:41.737Z,27.82
2018-11-29T15:23:11.073Z,29.37
2018-11-29T15:25:39.385Z,32.98
2018-11-29T15:28:07.640Z,24.70
2018-11-29T15:30:35.922Z,29.57
2018-11-29T15:33:04.188Z,41.53
2018-11-29T15:35:32.446Z,29.90
2018-11-29T15:38:00.677Z,28.40
2018-11-29T15:40:28.862Z,28.45
2018-11-29T15:42:57.250Z,25.27
2018-11-29T15:45:26.305Z,28.85
2018-11-29T15:47:54.489Z,25.20
2018-11-29T15:50:22.702Z,28.65
2018-11-29T15:52:51.107Z,26.65
2018-11-29T15:55:20.241Z,33.00
2018-11-29T15:57:52.590Z,25.68
2018-11-29T16:00:29.699Z,24.25
2018-11-29T16:03:01.127Z,31.23
2018-11-29T16:05:29.374Z,27.15
2018-11-29T16:07:57.699Z,33.33
2018-11-29T16:10:26.873Z,27.32
2018-11-29T16:12:55.205Z,23.10
2018-11-29T16:15:23.413Z,25.32
2018-11-29T16:17:52.498Z,24.92
2018-11-29T16:20:25.110Z,28.32
2018-11-29T16:22:53.525Z,28.65
2018-11-29T16:25:21.942Z,27.73
2018-11-29T16:27:50.147Z,27.65
2018-11-29T16:30:24.478Z,26.48
2018-11-29T16:32:52.907Z,38.38
2018-11-29T16:35:21.105Z,30.95
2018-11-29T16:37:49.297Z,32.05
2018-11-29T16:40:17.552Z,27.77
2018-11-29T16:42:45.706Z,26.95
2018-11-29T16:45:14.047Z,31.05
2018-11-29T16:47:42.573Z,30.80
2018-11-29T16:50:14.807Z,35.23
2018-11-29T16:52:43.056Z,29.27
2018-11-29T16:55:11.945Z,25.48
2018-11-29T16:57:42.248Z,27.17
2018-11-29T17:00:12.873Z,30.05
2018-11-29T17:02:41.114Z,31.73
2018-11-29T17:05:10.814Z,26.20
2018-11-29T17:07:39.057Z,36.13
2018-11-29T17:10:09.348Z,29.75
2018-11-29T17:12:37.573Z,34.48
2018-11-29T17:15:09.564Z,27.30
2018-11-29T17:17:37.796Z,25.68
2018-11-29T17:20:11.681Z,35.80
2018-11-29T17:22:39.940Z,29.35
2018-11-29T17:25:11.285Z,37.25
2018-11-29T17:27:39.634Z,24.77
2018-11-29T17:30:19.574Z,33.08
2018-11-29T17:32:48.228Z,31.52
2018-11-29T17:35:16.437Z,29.98
2018-11-29T17:37:44.638Z,26.80
2018-11-29T17:40:14.827Z,35.73
2018-11-29T17:42:43.175Z,30.90
2018-11-29T17:45:12.597Z,35.63
2018-11-29T17:47:41.105Z,28.50
2018-11-29T17:50:15.928Z,38.92
2018-11-29T17:52:44.161Z,31.55
2018-11-29T17:55:12.401Z,31.02
2018-11-29T17:57:40.873Z,29.42
2018-11-29T18:00:13.945Z,28.67
2018-11-29T18:02:42.177Z,36.00
2018-11-29T18:05:10.432Z,34.88
2018-11-29T18:07:38.662Z,31.00
2018-11-29T18:10:10.505Z,29.75
2018-11-29T18:12:38.743Z,33.92
2018-11-29T18:15:11.094Z,31.48
2018-11-29T18:17:39.318Z,33.90
2018-11-29T18:20:09.255Z,30.10
2018-11-29T18:22:37.487Z,40.30
2018-11-29T18:25:09.508Z,36.25
2018-11-29T18:27:38.002Z,33.42
2018-11-29T18:30:12.311Z,31.70
2018-11-29T18:32:40.637Z,29.23
2018-11-29T18:35:09.877Z,33.53
2018-11-29T18:37:38.170Z,31.87
2018-11-29T18:40:12.622Z,31.70
2018-11-29T18:42:40.826Z,33.35
2018-11-29T18:45:11.257Z,31.45
2018-11-29T18:47:39.869Z,38.48
2018-11-29T18:50:15.105Z,38.38
2018-11-29T18:52:43.333Z,35.43
2018-11-29T18:55:11.612Z,33.92
2018-11-29T18:57:40.016Z,31.27
2018-11-29T19:00:18.458Z,35.50
2018-11-29T19:02:47.505Z,37.00
2018-11-29T19:05:15.717Z,28.07
2018-11-29T19:07:44.092Z,28.98
2018-11-29T19:10:14.230Z,41.65
2018-11-29T19:12:43.968Z,33.95
2018-11-29T19:15:12.837Z,30.35
2018-11-29T19:17:41.068Z,37.65
2018-11-29T19:20:11.605Z,33.02
2018-11-29T19:22:39.828Z,35.98
2018-11-29T19:25:14.918Z,34.70
2018-11-29T19:27:43.158Z,31.73
2018-11-29T19:30:14.841Z,29.30
2018-11-29T19:32:43.218Z,34.85
2018-11-29T19:35:11.757Z,34.53
2018-11-29T19:37:39.996Z,31.48
2018-11-29T19:40:11.198Z,34.20
2018-11-29T19:42:39.460Z,30.57
2018-11-29T19:45:09.176Z,37.50
2018-11-29T19:47:37.389Z,39.20
2018-11-29T19:50:08.915Z,30.57
2018-11-29T19:52:37.169Z,32.30
2018-11-29T19:55:06.486Z,36.60
2018-11-29T19:57:35.016Z,30.45
2018-11-29T20:00:03.321Z,36.68
2018-11-29T20:02:31.561Z,30.45
2018-11-29T20:04:59.799Z,35.52
2018-11-29T20:07:27.969Z,34.80
2018-11-29T20:09:56.148Z,31.87
2018-11-29T20:12:24.361Z,33.40
2018-11-29T20:14:52.683Z,32.25
2018-11-29T20:17:21.142Z,33.88
2018-11-29T20:19:49.733Z,36.85
2018-11-29T20:22:18.142Z,40.55
2018-11-29T20:24:46.349Z,37.38
2018-11-29T20:27:14.553Z,29.15
2018-11-29T20:29:42.766Z,27.95
2018-11-29T20:32:11.026Z,30.37
2018-11-29T20:34:39.234Z,28.67
2018-11-29T20:37:07.435Z,34.90
2018-11-29T20:39:35.630Z,37.93
2018-11-29T20:42:03.847Z,35.83
2018-11-29T20:44:32.082Z,32.48
2018-11-29T20:47:00.383Z,33.78
2018-11-29T20:49:28.579Z,29.70
2018-11-29T20:51:56.813Z,28.00
2018-11-29T20:54:25.083Z,36.25
2018-11-29T20:56:53.249Z,38.63
2018-11-29T20:59:21.432Z,33.25
2018-11-29T21:01:49.632Z,30.68
2018-11-29T21:04:17.845Z,38.00
2018-11-29T21:06:46.056Z,32.78
2018-11-29T21:09:14.318Z,43.60
2018-11-29T21:11:47.619Z,41.68
2018-11-29T21:14:10.733Z,35.43
2018-11-29T21:16:38.917Z,34.60
2018-11-29T21:19:07.094Z,28.98
2018-11-29T21:21:35.262Z,34.65
2018-11-29T21:24:03.435Z,33.78
2018-11-29T21:26:31.629Z,36.68
2018-11-29T21:28:59.799Z,30.95
2018-11-29T21:31:27.989Z,28.57
2018-11-29T21:33:56.171Z,32.78
2018-11-29T21:36:24.341Z,33.10
2018-11-29T21:38:52.534Z,41.33
2018-11-29T21:41:20.725Z,31.55
2018-11-29T21:43:48.900Z,27.52
2018-11-29T21:46:17.096Z,33.00
2018-11-29T21:48:45.265Z,29.32
2018-11-29T21:51:13.432Z,31.35
2018-11-29T21:53:41.602Z,32.48
2018-11-29T21:56:09.799Z,32.03
2018-11-29T21:58:37.956Z,31.73
2018-11-29T22:01:06.160Z,37.42
2018-11-29T22:03:34.340Z,28.70
2018-11-29T22:06:02.510Z,32.23
2018-11-29T22:08:30.689Z,27.87
2018-11-29T22:10:58.861Z,26.95
2018-11-29T22:13:27.029Z,28.12
2018-11-29T22:15:55.207Z,29.92
2018-11-29T22:18:24.572Z,27.82
2018-11-29T22:20:56.717Z,28.47
2018-11-29T22:23:24.929Z,34.83
2018-11-29T22:25:53.893Z,33.48
2018-11-29T22:28:22.064Z,35.00
2018-11-29T22:30:50.242Z,38.88
2018-11-29T22:33:18.420Z,31.55
2018-11-29T22:35:46.593Z,33.38
2018-11-29T22:38:14.778Z,25.72
2018-11-29T22:40:42.935Z,28.35
2018-11-29T22:43:11.101Z,27.42
2018-11-29T22:45:39.293Z,34.08
2018-11-29T22:48:07.469Z,27.93
2018-11-29T22:50:35.665Z,27.52
2018-11-29T22:53:03.824Z,27.42
2018-11-29T22:55:31.997Z,33.08
2018-11-29T22:58:00.162Z,30.90
2018-11-29T23:00:33.897Z,31.17
2018-11-29T23:03:02.094Z,30.40
2018-11-29T23:05:30.312Z,32.85
2018-11-29T23:07:58.533Z,29.90
2018-11-29T23:10:26.740Z,31.68
2018-11-29T23:12:54.954Z,28.52
2018-11-29T23:15:23.178Z,25.65
2018-11-29T23:17:51.381Z,33.18
2018-11-29T23:22:54.134Z,32.20
2018-11-29T23:25:22.349Z,26.35
2018-11-29T23:27:50.578Z,30.68
2018-11-29T23:30:19.000Z,27.80
2018-11-29T23:32:47.201Z,35.88
2018-11-29T23:35:15.750Z,31.07
2018-11-29T23:37:43.987Z,29.18
2018-11-29T23:40:13.765Z,26.17
2018-11-29T23:42:42.981Z,26.73
2018-11-29T23:45:12.175Z,30.17
2018-11-29T23:47:40.425Z,29.37
2018-11-29T23:50:16.396Z,30.97
2018-11-29T23:52:44.638Z,32.85
2018-11-29T23:55:15.184Z,36.58
2018-11-29T23:57:43.421Z,26.77
